Terminal Aerodrome Forecast
Issued by NWS Brownsville, TX

Home | Current Version | Previous Version | Text Only | Print | Product List | Glossary On
Versions: 1 2 3 4 5 6 7 8 9 10 11 12 13 14
042
FTUS44 KBRO 220242 AAA
TAFMFE
TAF AMD
KMFE 220242Z 2203/2224 13010KT P6SM SKC
     FM220600 14009KT P6SM OVC010
     FM220900 15004KT 4SM BR SCT250
     FM221500 35004KT P6SM SCT250=

USA.gov is the U.S. government's official web portal to all federal, state and local government web resources and services.